Time;durP1;ratioP1;P1;durP2;ratioP2;P2;SDS_P1;SDS_P2;PMS_P1;PMS_P2;Temp;Humidity;BMP_temperature;BMP_pressure;BME280_temperature;BME280_humidity;BME280_pressure;Samples;Min_cycle;Max_cycle;Signal;HPM_P1;HPM_P2
2022/07/10 00:00:31;;;;;;;7.43;6.67;;;12.00;99.90;;;;;;5093123;28;20472;-66
2022/07/10 00:03:00;;;;;;;6.90;6.37;;;12.00;99.90;;;;;;5104999;28;20454;-67
2022/07/10 00:05:27;;;;;;;8.87;8.07;;;12.10;99.90;;;;;;5096817;28;20458;-66
2022/07/10 00:07:55;;;;;;;8.50;7.83;;;12.10;99.90;;;;;;5096125;28;20454;-65
2022/07/10 00:10:23;;;;;;;7.37;6.97;;;11.90;99.90;;;;;;5097910;28;20845;-67
2022/07/10 00:12:52;;;;;;;7.80;7.20;;;11.80;99.90;;;;;;5093062;28;20485;-67
2022/07/10 00:15:20;;;;;;;8.60;7.27;;;11.70;99.90;;;;;;5095571;28;20463;-66
2022/07/10 00:17:49;;;;;;;7.40;6.80;;;11.70;99.90;;;;;;5096173;28;20453;-66
2022/07/10 00:20:18;;;;;;;8.13;7.33;;;11.70;99.90;;;;;;5099080;27;20462;-66
2022/07/10 00:22:45;;;;;;;8.33;7.10;;;11.70;99.90;;;;;;5097286;28;20468;-65
2022/07/10 00:25:13;;;;;;;9.40;7.30;;;11.60;99.90;;;;;;5097747;28;20465;-66
2022/07/10 00:27:41;;;;;;;11.07;7.10;;;11.60;99.90;;;;;;5102612;28;20477;-65
2022/07/10 00:30:09;;;;;;;7.97;7.17;;;11.60;99.90;;;;;;5098724;28;20577;-66
2022/07/10 00:32:37;;;;;;;11.60;6.90;;;11.60;99.90;;;;;;5099031;28;20465;-66
2022/07/10 00:35:04;;;;;;;7.63;6.57;;;11.70;99.90;;;;;;5094034;28;20545;-66
2022/07/10 00:37:33;;;;;;;7.63;5.90;;;11.80;99.90;;;;;;5096728;28;20468;-66
2022/07/10 00:40:01;;;;;;;17.07;6.73;;;11.90;99.90;;;;;;5094684;27;20457;-66
2022/07/10 00:42:28;;;;;;;6.87;6.17;;;11.90;99.90;;;;;;5094178;28;20477;-66
2022/07/10 00:44:55;;;;;;;7.00;6.20;;;12.10;99.90;;;;;;5095141;28;20501;-67
2022/07/10 00:47:22;;;;;;;7.10;5.93;;;12.10;99.90;;;;;;5093720;28;20469;-66
2022/07/10 00:49:49;;;;;;;6.20;5.80;;;12.10;99.90;;;;;;5096364;28;20474;-66
2022/07/10 00:52:18;;;;;;;6.23;5.80;;;12.20;99.90;;;;;;5093531;28;20464;-66
2022/07/10 00:54:50;;;;;;;9.17;5.90;;;12.30;99.90;;;;;;5101707;28;20492;-67
2022/07/10 00:57:18;;;;;;;14.80;5.70;;;12.40;99.90;;;;;;5103562;28;20539;-67
2022/07/10 00:59:48;;;;;;;6.27;5.67;;;12.50;99.90;;;;;;5093814;28;20461;-66
2022/07/10 01:02:16;;;;;;;6.67;6.20;;;12.50;99.90;;;;;;5099658;28;20454;-66
2022/07/10 01:04:44;;;;;;;9.47;6.40;;;12.50;99.90;;;;;;5096705;28;20511;-66
2022/07/10 01:07:12;;;;;;;6.57;5.97;;;12.50;99.90;;;;;;5097998;28;20469;-66
2022/07/10 01:09:39;;;;;;;6.70;6.10;;;12.50;99.90;;;;;;5098261;28;20461;-65
2022/07/10 01:12:10;;;;;;;7.73;6.30;;;12.60;99.90;;;;;;5095266;28;20469;-65
2022/07/10 01:14:39;;;;;;;9.37;6.23;;;12.60;99.90;;;;;;5095527;28;20481;-65
2022/07/10 01:17:08;;;;;;;6.80;6.30;;;12.70;99.90;;;;;;5095452;28;20456;-65
2022/07/10 01:19:36;;;;;;;10.73;6.00;;;12.70;99.90;;;;;;5092402;28;20466;-65
2022/07/10 01:22:06;;;;;;;9.30;6.50;;;12.70;99.90;;;;;;5094424;28;20549;-67
2022/07/10 01:24:33;;;;;;;6.53;6.03;;;12.70;99.90;;;;;;5094340;28;20458;-67
2022/07/10 01:27:00;;;;;;;9.90;6.10;;;12.80;99.90;;;;;;5087912;28;20481;-66
2022/07/10 01:29:28;;;;;;;6.70;6.03;;;12.90;99.90;;;;;;5092792;28;20458;-66
2022/07/10 01:31:56;;;;;;;10.27;6.03;;;12.90;99.90;;;;;;5092016;28;20539;-66
2022/07/10 01:34:24;;;;;;;8.90;6.50;;;13.00;99.90;;;;;;5096070;28;20489;-65
2022/07/10 01:36:51;;;;;;;6.70;6.10;;;13.10;99.90;;;;;;5097316;28;20541;-66
2022/07/10 01:39:19;;;;;;;6.63;6.00;;;13.20;99.90;;;;;;5091793;28;20500;-66
2022/07/10 01:41:47;;;;;;;7.17;6.47;;;13.20;99.90;;;;;;5094717;28;20488;-67
2022/07/10 01:44:29;;;;;;;7.63;6.20;;;13.20;99.90;;;;;;5095747;28;20482;-66
2022/07/10 01:46:57;;;;;;;10.33;6.20;;;13.20;99.90;;;;;;5094179;27;20473;-65
2022/07/10 01:49:24;;;;;;;11.43;7.03;;;13.20;99.90;;;;;;5093682;28;20843;-66
2022/07/10 01:51:51;;;;;;;11.00;6.77;;;13.10;99.90;;;;;;5095711;28;20589;-66
2022/07/10 01:54:19;;;;;;;6.70;6.10;;;13.10;99.90;;;;;;5094280;28;20551;-67
2022/07/10 01:56:46;;;;;;;8.43;6.30;;;13.10;99.90;;;;;;5094806;28;20476;-66
2022/07/10 01:59:13;;;;;;;10.07;7.00;;;13.10;99.90;;;;;;5101587;28;20453;-67
2022/07/10 02:01:40;;;;;;;9.00;6.80;;;13.10;99.90;;;;;;5092139;28;20454;-67
2022/07/10 02:06:52;;;;;;;8.87;7.43;;;13.10;99.90;;;;;;5094694;28;20518;-66
2022/07/10 02:09:22;;;;;;;9.37;6.37;;;13.10;99.90;;;;;;5091320;28;20523;-65
2022/07/10 02:11:48;;;;;;;7.90;7.10;;;13.20;99.90;;;;;;5087761;28;20842;-66
2022/07/10 02:14:16;;;;;;;6.83;6.30;;;13.30;99.90;;;;;;5094808;28;20462;-66
2022/07/10 02:16:44;;;;;;;7.00;6.23;;;13.30;99.90;;;;;;5098809;28;20467;-66
2022/07/10 02:19:11;;;;;;;7.30;6.50;;;13.30;99.90;;;;;;5097125;28;20457;-66
2022/07/10 02:21:38;;;;;;;9.67;7.57;;;13.20;99.90;;;;;;5092823;28;20466;-65
2022/07/10 02:24:05;;;;;;;7.30;6.80;;;13.20;99.90;;;;;;5087156;28;20458;-68
2022/07/10 02:26:34;;;;;;;9.00;7.43;;;13.10;99.90;;;;;;5094993;28;20493;-66
2022/07/10 02:29:01;;;;;;;8.83;7.00;;;13.00;99.90;;;;;;5102926;28;20516;-66
2022/07/10 02:31:28;;;;;;;8.53;7.00;;;12.90;99.90;;;;;;5093526;28;20992;-68
2022/07/10 02:33:55;;;;;;;7.70;6.90;;;12.90;99.90;;;;;;5098112;28;20457;-66
2022/07/10 02:36:21;;;;;;;15.23;8.10;;;12.70;99.90;;;;;;5089911;28;20466;-67
2022/07/10 02:38:48;;;;;;;8.63;6.90;;;12.60;99.90;;;;;;5093162;28;20825;-65
2022/07/10 02:41:16;;;;;;;7.80;7.27;;;12.50;99.90;;;;;;5098569;28;20465;-65
2022/07/10 02:43:45;;;;;;;9.70;6.80;;;12.40;99.90;;;;;;5096370;28;20457;-66
2022/07/10 02:46:11;;;;;;;8.47;7.57;;;12.30;99.90;;;;;;5095594;28;20458;-66
2022/07/10 02:48:39;;;;;;;9.67;6.97;;;12.20;99.90;;;;;;5092418;28;20462;-66
2022/07/10 02:51:06;;;;;;;8.43;7.67;;;12.10;99.90;;;;;;5090389;28;20524;-65
2022/07/10 02:53:32;;;;;;;8.03;6.90;;;12.00;99.90;;;;;;5092362;28;20838;-67
2022/07/10 02:56:00;;;;;;;9.13;7.30;;;11.90;99.90;;;;;;5094353;28;20469;-67
2022/07/10 02:58:27;;;;;;;9.27;6.53;;;11.90;99.90;;;;;;5093651;28;20899;-66
2022/07/10 03:00:55;;;;;;;8.43;7.67;;;11.90;99.90;;;;;;5093346;28;20457;-65
2022/07/10 03:03:23;;;;;;;7.93;7.03;;;11.90;99.90;;;;;;5098773;28;20865;-65
2022/07/10 03:05:50;;;;;;;9.30;7.37;;;11.90;99.90;;;;;;5101632;28;20523;-67
2022/07/10 03:08:17;;;;;;;7.87;7.10;;;11.90;99.90;;;;;;5094107;28;21174;-65
2022/07/10 03:10:45;;;;;;;9.80;7.43;;;11.90;99.90;;;;;;5098505;28;20851;-67
2022/07/10 03:13:12;;;;;;;8.50;7.67;;;11.90;99.90;;;;;;5101255;28;20823;-66
2022/07/10 03:15:38;;;;;;;7.43;6.63;;;11.90;99.90;;;;;;5093387;28;20458;-66
2022/07/10 03:18:07;;;;;;;17.43;7.40;;;11.90;99.90;;;;;;5099921;28;20457;-65
2022/07/10 03:20:34;;;;;;;11.40;6.77;;;11.90;99.90;;;;;;5098075;28;20466;-67
2022/07/10 03:23:02;;;;;;;7.73;6.17;;;11.90;99.90;;;;;;5100196;28;20578;-68
2022/07/10 03:25:29;;;;;;;8.50;6.70;;;11.90;99.90;;;;;;5094398;28;20488;-65
2022/07/10 03:27:55;;;;;;;8.77;7.87;;;11.80;99.90;;;;;;5093977;28;20512;-67
2022/07/10 03:30:23;;;;;;;7.37;6.87;;;11.80;99.90;;;;;;5096625;28;20472;-66
2022/07/10 03:32:50;;;;;;;15.60;7.30;;;11.90;99.90;;;;;;5094526;28;20469;-65
2022/07/10 03:35:19;;;;;;;6.30;5.67;;;11.90;99.90;;;;;;5100496;28;20457;-68
2022/07/10 03:37:46;;;;;;;8.30;7.17;;;11.90;99.90;;;;;;5096289;28;20679;-66
2022/07/10 03:40:14;;;;;;;7.20;6.50;;;11.90;99.90;;;;;;5096507;28;20464;-65
2022/07/10 03:42:42;;;;;;;6.50;6.00;;;11.90;99.90;;;;;;5096744;28;20462;-66
2022/07/10 03:45:09;;;;;;;8.13;7.23;;;11.90;99.90;;;;;;5092833;28;20465;-65
2022/07/10 03:47:37;;;;;;;7.90;6.60;;;12.00;99.90;;;;;;5094586;28;20544;-66
2022/07/10 03:50:05;;;;;;;7.07;6.40;;;12.00;99.90;;;;;;5095010;28;20963;-65
2022/07/10 03:52:34;;;;;;;8.43;7.00;;;12.00;99.90;;;;;;5099552;28;20480;-65
2022/07/10 03:55:01;;;;;;;6.73;6.20;;;12.00;99.90;;;;;;5098745;28;20802;-66
2022/07/10 04:00:14;;;;;;;15.40;7.77;;;12.10;99.90;;;;;;5093243;28;20583;-67
2022/07/10 04:02:56;;;;;;;10.73;6.70;;;12.20;99.90;;;;;;5079896;28;20812;-67
2022/07/10 04:05:23;;;;;;;9.73;7.10;;;12.30;99.90;;;;;;5071440;28;20902;-67
2022/07/10 04:07:51;;;;;;;7.57;6.80;;;12.20;99.90;;;;;;5088644;28;20554;-67
2022/07/10 04:10:19;;;;;;;12.23;6.83;;;12.30;99.90;;;;;;5091239;28;20971;-66
2022/07/10 04:12:46;;;;;;;7.70;6.50;;;12.20;99.90;;;;;;5094666;28;20485;-67
2022/07/10 04:15:13;;;;;;;9.50;7.17;;;12.20;99.90;;;;;;5079026;28;20559;-66
2022/07/10 04:17:40;;;;;;;8.03;7.23;;;12.20;99.90;;;;;;5071138;28;20588;-66
2022/07/10 04:20:08;;;;;;;11.03;7.90;;;12.20;99.90;;;;;;5072792;28;20457;-67
2022/07/10 04:22:35;;;;;;;10.70;7.40;;;12.20;99.90;;;;;;5069440;28;20458;-68
2022/07/10 04:25:05;;;;;;;13.27;7.40;;;12.20;99.90;;;;;;5072171;28;20458;-66
2022/07/10 04:27:32;;;;;;;13.10;6.80;;;12.20;99.90;;;;;;5072032;28;20555;-66
2022/07/10 04:29:59;;;;;;;8.90;6.93;;;12.20;99.90;;;;;;5071322;28;20856;-66
2022/07/10 04:32:25;;;;;;;7.20;6.60;;;12.20;99.90;;;;;;5070249;28;20485;-68
2022/07/10 04:34:52;;;;;;;14.13;8.03;;;12.30;99.90;;;;;;5072332;28;20473;-66
2022/07/10 04:37:19;;;;;;;7.93;6.53;;;12.30;99.90;;;;;;5072224;28;20466;-65
2022/07/10 04:39:46;;;;;;;8.23;7.23;;;12.30;99.90;;;;;;5072281;28;20521;-66
2022/07/10 04:42:14;;;;;;;9.00;6.70;;;12.40;99.90;;;;;;5070648;28;20466;-65
2022/07/10 04:44:41;;;;;;;8.73;6.67;;;12.60;99.90;;;;;;5072135;28;21167;-68
2022/07/10 04:47:08;;;;;;;8.23;7.47;;;12.60;99.90;;;;;;5069611;28;20517;-67
2022/07/10 04:49:35;;;;;;;11.50;6.60;;;12.80;99.90;;;;;;5070872;28;20457;-67
2022/07/10 04:52:02;;;;;;;7.27;6.57;;;13.00;99.90;;;;;;5071970;28;20501;-67
2022/07/10 04:54:30;;;;;;;10.87;6.80;;;13.20;99.90;;;;;;5071409;28;20465;-66
2022/07/10 04:56:57;;;;;;;8.83;7.03;;;13.40;99.90;;;;;;5070845;28;20502;-65
2022/07/10 04:59:25;;;;;;;7.20;6.47;;;13.50;99.90;;;;;;5071306;28;20454;-66
2022/07/10 05:01:52;;;;;;;6.57;6.07;;;13.70;99.90;;;;;;5070921;28;20465;-67
2022/07/10 05:04:19;;;;;;;6.87;6.13;;;13.90;99.90;;;;;;5069074;28;20470;-66
2022/07/10 05:06:46;;;;;;;8.10;5.93;;;14.00;99.90;;;;;;5070274;28;20483;-66
2022/07/10 05:09:13;;;;;;;8.77;7.40;;;14.10;99.90;;;;;;5071452;28;20478;-66
2022/07/10 05:11:39;;;;;;;7.53;6.73;;;14.30;99.90;;;;;;5069390;28;20481;-66
2022/07/10 05:14:06;;;;;;;8.30;7.60;;;14.40;99.90;;;;;;5071232;28;20470;-66
2022/07/10 05:16:34;;;;;;;20.27;8.40;;;14.40;99.90;;;;;;5072260;28;20462;-67
2022/07/10 05:19:01;;;;;;;7.70;7.00;;;14.40;99.90;;;;;;5072214;28;20488;-67
2022/07/10 05:21:28;;;;;;;9.23;8.30;;;14.50;99.90;;;;;;5070987;28;20463;-66
2022/07/10 05:23:55;;;;;;;8.70;8.10;;;14.50;99.90;;;;;;5070187;28;20470;-66
2022/07/10 05:26:22;;;;;;;10.20;8.83;;;14.50;99.90;;;;;;5070571;28;20604;-67
2022/07/10 05:28:50;;;;;;;10.50;9.47;;;14.60;99.90;;;;;;5069353;28;20462;-66
2022/07/10 05:31:17;;;;;;;11.83;9.33;;;14.60;99.90;;;;;;5069656;28;20492;-66
2022/07/10 05:33:45;;;;;;;9.40;8.70;;;14.70;99.90;;;;;;5071462;28;20462;-67
2022/07/10 05:36:12;;;;;;;8.80;8.30;;;14.90;99.90;;;;;;5073291;28;20485;-67
2022/07/10 05:38:40;;;;;;;9.20;8.57;;;15.00;99.90;;;;;;5091695;28;20471;-67
2022/07/10 05:41:07;;;;;;;9.60;8.90;;;15.00;99.90;;;;;;5101230;28;20464;-66
2022/07/10 05:43:34;;;;;;;10.80;9.80;;;15.10;99.90;;;;;;5074458;28;20954;-67
2022/07/10 05:46:01;;;;;;;19.23;10.10;;;15.00;99.90;;;;;;5070530;28;20512;-66
2022/07/10 05:48:28;;;;;;;10.43;9.50;;;15.10;99.90;;;;;;5069080;28;20511;-67
2022/07/10 05:50:56;;;;;;;10.97;10.23;;;15.20;99.90;;;;;;5069132;28;20554;-68
2022/07/10 05:53:23;;;;;;;11.67;10.47;;;15.30;99.90;;;;;;5070603;28;20906;-67
2022/07/10 05:55:50;;;;;;;11.33;9.47;;;15.40;99.90;;;;;;5070287;28;22458;-67
2022/07/10 05:58:17;;;;;;;10.77;9.73;;;15.50;99.90;;;;;;5070734;28;20462;-66
2022/07/10 06:00:45;;;;;;;11.17;10.37;;;15.60;99.90;;;;;;5068800;28;20586;-66
2022/07/10 06:03:12;;;;;;;11.33;10.57;;;15.50;99.90;;;;;;5063980;28;20602;-66
2022/07/10 06:05:39;;;;;;;11.67;10.50;;;15.60;99.90;;;;;;5068178;28;20664;-66
2022/07/10 06:08:08;;;;;;;11.90;10.70;;;15.60;99.90;;;;;;5068118;28;20764;-67
2022/07/10 06:10:34;;;;;;;13.50;10.63;;;15.70;99.90;;;;;;5068431;28;20473;-67
2022/07/10 06:13:01;;;;;;;11.00;10.00;;;15.70;99.90;;;;;;5066564;28;21039;-67
2022/07/10 06:15:28;;;;;;;10.83;10.23;;;15.80;99.90;;;;;;5066274;28;20473;-66
2022/07/10 06:17:58;;;;;;;12.40;11.30;;;15.80;99.90;;;;;;5068509;28;20545;-68
2022/07/10 06:20:25;;;;;;;11.20;10.40;;;15.90;99.90;;;;;;5068911;28;20500;-68
2022/07/10 06:22:52;;;;;;;11.13;10.23;;;16.10;99.90;;;;;;5068142;28;20462;-67
2022/07/10 06:25:20;;;;;;;11.20;10.30;;;16.20;99.90;;;;;;5071196;28;21183;-67
2022/07/10 06:27:47;;;;;;;12.00;10.20;;;16.20;99.90;;;;;;5071352;28;20497;-66
2022/07/10 06:30:14;;;;;;;10.90;10.20;;;16.20;99.90;;;;;;5070644;28;20468;-66
2022/07/10 06:32:41;;;;;;;10.77;10.13;;;16.40;99.90;;;;;;5071402;28;20807;-66
2022/07/10 06:35:08;;;;;;;10.57;9.77;;;16.40;99.90;;;;;;5071639;28;20514;-66
2022/07/10 06:37:35;;;;;;;11.77;10.80;;;16.30;99.90;;;;;;5072779;28;20465;-67
2022/07/10 06:40:02;;;;;;;11.00;10.07;;;16.10;99.90;;;;;;5089373;28;21201;-66
2022/07/10 06:42:30;;;;;;;10.70;10.00;;;16.00;99.90;;;;;;5070519;28;20466;-66
2022/07/10 06:44:57;;;;;;;11.10;10.20;;;16.10;99.90;;;;;;5070860;28;22675;-65
2022/07/10 06:50:10;;;;;;;10.23;9.63;;;16.30;99.90;;;;;;5070813;28;20500;-65
2022/07/10 06:52:37;;;;;;;11.30;10.27;;;16.50;99.90;;;;;;5071085;28;21040;-65
2022/07/10 06:55:05;;;;;;;10.93;10.00;;;16.50;99.90;;;;;;5070768;28;20453;-67
2022/07/10 06:57:34;;;;;;;12.13;11.10;;;16.50;99.90;;;;;;5071189;28;20826;-68
2022/07/10 07:00:00;;;;;;;11.80;10.77;;;16.60;99.90;;;;;;5070267;28;20480;-66
2022/07/10 07:02:27;;;;;;;11.20;10.30;;;16.60;99.90;;;;;;5069931;28;20469;-66
2022/07/10 07:04:54;;;;;;;11.20;10.30;;;16.60;99.90;;;;;;5072619;28;20462;-66
2022/07/10 07:07:21;;;;;;;12.07;10.80;;;16.60;99.90;;;;;;5083858;28;20491;-66
2022/07/10 07:09:50;;;;;;;11.03;10.13;;;16.60;99.90;;;;;;5091739;28;20477;-67
2022/07/10 07:12:17;;;;;;;12.37;11.13;;;16.60;99.90;;;;;;5076371;28;20966;-66
2022/07/10 07:14:46;;;;;;;10.53;9.70;;;16.70;99.90;;;;;;5071219;28;20596;-67
2022/07/10 07:17:14;;;;;;;12.00;10.80;;;16.90;99.90;;;;;;5071477;28;21288;-66
2022/07/10 07:25:12;;;;;;;11.27;10.23;;;17.00;99.90;;;;;;5078562;28;20476;-67
2022/07/10 07:27:39;;;;;;;11.07;10.17;;;17.00;99.90;;;;;;5090654;28;20585;-65
2022/07/10 07:30:11;;;;;;;11.87;10.80;;;17.10;99.90;;;;;;5081943;28;21073;-66
2022/07/10 07:32:38;;;;;;;11.23;10.63;;;17.10;99.90;;;;;;5069421;28;20497;-66
2022/07/10 07:35:06;;;;;;;18.90;10.90;;;17.20;99.90;;;;;;5075905;28;20454;-66
2022/07/10 07:37:38;;;;;;;11.87;10.73;;;17.20;99.90;;;;;;5089027;28;20554;-66
2022/07/10 07:40:06;;;;;;;16.63;11.70;;;17.40;99.90;;;;;;5100424;28;20456;-66
2022/07/10 07:42:33;;;;;;;11.00;10.30;;;17.50;99.90;;;;;;5086157;28;21119;-65
2022/07/10 07:45:00;;;;;;;15.23;11.37;;;17.50;99.90;;;;;;5071271;28;20453;-66
2022/07/10 07:47:28;;;;;;;11.23;10.30;;;17.60;99.90;;;;;;5071057;28;20496;-65
2022/07/10 07:49:55;;;;;;;10.97;10.17;;;17.80;99.90;;;;;;5070753;28;20507;-67
2022/07/10 07:52:23;;;;;;;10.93;10.10;;;17.80;99.90;;;;;;5070746;28;20500;-66
2022/07/10 07:54:51;;;;;;;11.77;10.27;;;18.00;99.90;;;;;;5071463;28;21156;-65
2022/07/10 07:57:18;;;;;;;12.27;11.00;;;18.20;99.90;;;;;;5070601;28;21020;-66
2022/07/10 07:59:45;;;;;;;11.50;10.70;;;18.40;99.90;;;;;;5070310;28;20469;-66
2022/07/10 08:02:12;;;;;;;11.23;10.40;;;18.50;99.90;;;;;;5070865;28;20461;-65
2022/07/10 08:04:41;;;;;;;11.07;10.47;;;18.90;99.90;;;;;;5072204;27;20460;-66
2022/07/10 08:07:07;;;;;;;12.60;11.50;;;18.90;99.90;;;;;;5071865;28;20454;-67
2022/07/10 08:09:34;;;;;;;11.70;10.77;;;19.10;99.90;;;;;;5071175;28;21075;-66
2022/07/10 08:12:01;;;;;;;11.80;11.03;;;19.20;99.90;;;;;;5069901;28;20609;-66
2022/07/10 08:14:44;;;;;;;12.27;11.33;;;19.40;99.90;;;;;;5068736;28;20863;-67
2022/07/10 08:17:11;;;;;;;12.47;10.93;;;19.10;99.90;;;;;;5071458;28;20658;-66
2022/07/10 08:19:38;;;;;;;11.60;10.60;;;19.00;99.90;;;;;;5070039;28;20950;-66
2022/07/10 08:22:06;;;;;;;14.70;10.73;;;18.70;99.90;;;;;;5070298;28;20611;-66
2022/07/10 08:24:33;;;;;;;14.77;10.60;;;18.80;99.90;;;;;;5070648;28;20509;-65
2022/07/10 08:26:59;;;;;;;12.33;10.10;;;18.60;99.90;;;;;;5070512;28;20493;-67
2022/07/10 08:29:26;;;;;;;11.63;10.30;;;18.50;99.90;;;;;;5070487;28;20462;-67
2022/07/10 08:31:53;;;;;;;12.13;10.87;;;18.90;99.90;;;;;;5068069;28;20470;-67
2022/07/10 08:34:20;;;;;;;12.13;10.90;;;19.30;99.90;;;;;;5055892;28;20462;-66
2022/07/10 08:36:47;;;;;;;12.30;11.37;;;19.60;99.90;;;;;;5064846;28;20476;-67
2022/07/10 08:39:17;;;;;;;13.53;11.43;;;19.90;99.90;;;;;;5063001;28;20465;-66
2022/07/10 08:41:45;;;;;;;12.03;11.00;;;20.20;99.90;;;;;;5063662;28;20477;-65
2022/07/10 08:44:12;;;;;;;12.07;11.10;;;20.50;99.90;;;;;;5064907;28;20503;-65
2022/07/10 08:46:40;;;;;;;12.23;11.23;;;20.10;99.90;;;;;;5065524;28;20458;-66
2022/07/10 08:49:11;;;;;;;12.40;11.23;;;19.40;99.90;;;;;;5063224;28;20462;-66
2022/07/10 08:51:42;;;;;;;12.17;11.17;;;19.30;99.90;;;;;;5065541;28;20457;-67
2022/07/10 08:54:09;;;;;;;13.03;12.00;;;19.20;99.90;;;;;;5063187;28;20503;-66
2022/07/10 08:56:38;;;;;;;13.10;11.90;;;19.10;99.90;;;;;;5064241;28;20488;-67
2022/07/10 08:59:05;;;;;;;17.77;11.43;;;19.00;99.90;;;;;;5065390;28;20497;-65
2022/07/10 09:01:32;;;;;;;15.20;11.50;;;18.40;99.90;;;;;;5064711;28;20469;-66
2022/07/10 09:04:00;;;;;;;13.03;11.63;;;18.20;99.90;;;;;;5065018;28;20470;-66
2022/07/10 09:06:29;;;;;;;12.10;11.00;;;18.10;99.90;;;;;;5063533;28;20615;-66
2022/07/10 09:09:02;;;;;;;11.60;10.40;;;18.10;99.90;;;;;;5064287;28;20839;-65
2022/07/10 09:11:30;;;;;;;11.37;10.70;;;18.10;99.90;;;;;;5066988;28;20454;-66
2022/07/10 09:14:02;;;;;;;12.03;10.93;;;18.10;99.90;;;;;;5061807;28;20492;-66
2022/07/10 09:16:32;;;;;;;11.03;10.03;;;18.20;99.90;;;;;;5065126;28;20940;-66
2022/07/10 09:22:05;;;;;;;11.20;10.37;;;18.10;99.90;;;;;;5064977;27;20489;-65
2022/07/10 09:24:37;;;;;;;11.57;10.50;;;18.00;99.90;;;;;;5065101;28;20828;-65
2022/07/10 09:27:05;;;;;;;16.30;11.10;;;17.80;99.90;;;;;;5063232;28;20489;-68
2022/07/10 09:29:45;;;;;;;10.83;10.17;;;17.80;99.90;;;;;;5063739;28;21011;-66
2022/07/10 09:32:12;;;;;;;10.77;10.03;;;17.90;99.90;;;;;;5064650;28;20481;-66
2022/07/10 09:34:41;;;;;;;11.13;10.50;;;17.90;99.90;;;;;;5062737;28;20477;-66
2022/07/10 09:37:22;;;;;;;13.10;11.00;;;17.90;99.90;;;;;;5062918;28;20468;-67
2022/07/10 09:40:00;;;;;;;11.80;10.63;;;18.10;99.90;;;;;;5064413;28;20530;-65
2022/07/10 09:42:29;;;;;;;11.80;10.87;;;18.20;99.90;;;;;;5063471;28;20454;-66
2022/07/10 09:45:17;;;;;;;11.10;10.03;;;18.20;99.90;;;;;;5063697;28;20826;-67
2022/07/10 09:47:46;;;;;;;11.40;10.40;;;18.10;99.90;;;;;;5063951;28;20551;-67
2022/07/10 09:50:24;;;;;;;11.53;10.60;;;17.60;99.90;;;;;;5063916;28;20465;-65
2022/07/10 09:52:53;;;;;;;17.33;13.60;;;17.30;99.90;;;;;;5064851;28;20491;-67
2022/07/10 09:55:22;;;;;;;13.87;12.23;;;17.00;99.90;;;;;;5062631;28;20469;-66
2022/07/10 09:57:55;;;;;;;16.20;10.83;;;16.90;99.90;;;;;;5063414;28;20863;-65
2022/07/10 10:00:26;;;;;;;10.33;9.13;;;16.90;99.90;;;;;;5064598;28;20569;-67
2022/07/10 10:02:56;;;;;;;10.80;9.80;;;16.90;99.90;;;;;;5064627;28;20542;-66
2022/07/10 10:05:32;;;;;;;8.40;6.90;;;17.00;99.90;;;;;;5063506;28;20465;-67
2022/07/10 10:08:05;;;;;;;8.20;7.43;;;17.30;99.90;;;;;;5063217;28;20901;-67
2022/07/10 10:10:36;;;;;;;8.67;7.90;;;17.60;99.90;;;;;;5062305;28;20480;-67
2022/07/10 10:13:10;;;;;;;9.50;8.70;;;18.10;99.90;;;;;;5062255;28;20725;-68
2022/07/10 10:15:38;;;;;;;11.73;9.80;;;19.10;99.90;;;;;;5065490;28;20460;-67
2022/07/10 10:18:07;;;;;;;11.13;10.13;;;20.00;99.90;;;;;;5070895;28;20520;-66
2022/07/10 10:20:37;;;;;;;10.77;10.17;;;19.70;99.90;;;;;;5065137;28;20454;-66
2022/07/10 10:23:06;;;;;;;11.60;10.80;;;20.00;99.90;;;;;;5065353;28;20940;-66
2022/07/10 10:25:34;;;;;;;11.80;10.90;;;20.70;99.90;;;;;;5065335;28;20473;-66
2022/07/10 10:28:02;;;;;;;11.93;11.23;;;21.40;99.90;;;;;;5068900;28;21594;-67
2022/07/10 10:30:30;;;;;;;12.03;11.17;;;21.40;99.90;;;;;;5063063;28;20466;-66
2022/07/10 10:32:59;;;;;;;12.33;11.47;;;21.90;99.90;;;;;;5063648;28;20493;-68
2022/07/10 10:35:46;;;;;;;13.10;11.80;;;22.50;99.90;;;;;;5063534;28;20530;-68
2022/07/10 10:38:13;;;;;;;13.33;12.53;;;22.40;99.90;;;;;;5062707;28;20490;-68
2022/07/10 10:40:41;;;;;;;13.83;12.40;;;22.10;99.90;;;;;;5062175;28;21325;-66
2022/07/10 10:43:22;;;;;;;12.90;12.30;;;22.60;99.90;;;;;;5061882;28;21005;-67
2022/07/10 10:45:49;;;;;;;13.90;12.50;;;22.80;99.90;;;;;;5062791;28;20992;-68
2022/07/10 10:48:20;;;;;;;13.17;12.27;;;22.30;99.90;;;;;;5062993;28;20453;-69
2022/07/10 10:50:48;;;;;;;12.90;12.10;;;21.80;99.90;;;;;;5062968;28;20446;-67
2022/07/10 10:53:17;;;;;;;14.10;12.87;;;21.70;99.90;;;;;;5063972;28;20528;-68
2022/07/10 10:56:17;;;;;;;12.40;11.40;;;21.50;99.90;;;;;;5061289;28;20454;-68
2022/07/10 10:58:45;;;;;;;13.20;12.20;;;21.70;99.90;;;;;;5057338;28;20545;-67
2022/07/10 11:01:26;;;;;;;13.77;12.63;;;21.90;99.90;;;;;;5058676;28;20469;-67
2022/07/10 11:04:19;;;;;;;13.20;12.40;;;21.60;99.90;;;;;;5061661;28;20619;-67
2022/07/10 11:06:48;;;;;;;12.67;11.63;;;21.10;99.90;;;;;;5071565;28;20476;-67
2022/07/10 11:09:29;;;;;;;11.60;10.70;;;21.10;99.90;;;;;;5087454;28;20458;-66
2022/07/10 11:11:59;;;;;;;12.17;11.37;;;21.50;99.90;;;;;;5084460;28;20927;-67
2022/07/10 11:14:28;;;;;;;12.20;11.50;;;22.20;99.90;;;;;;5066528;28;20838;-67
2022/07/10 11:16:55;;;;;;;12.90;11.90;;;22.10;99.90;;;;;;5067605;28;20509;-67
2022/07/10 11:19:25;;;;;;;13.53;12.30;;;22.50;99.90;;;;;;5066603;28;20457;-67
2022/07/10 11:22:08;;;;;;;13.63;12.60;;;22.60;99.90;;;;;;5067232;28;21036;-68
2022/07/10 11:24:44;;;;;;;13.87;12.47;;;22.70;99.90;;;;;;5078828;28;20493;-66
2022/07/10 11:27:25;;;;;;;13.10;11.83;;;22.40;99.90;;;;;;5088524;28;20516;-66
2022/07/10 11:29:58;;;;;;;12.87;11.87;;;22.10;99.90;;;;;;5088692;28;20472;-67
2022/07/10 11:32:25;;;;;;;13.23;12.40;;;22.10;99.90;;;;;;5085173;28;20523;-69
2022/07/10 11:34:54;;;;;;;12.73;11.73;;;21.60;99.90;;;;;;5065111;28;20485;-69
2022/07/10 11:37:22;;;;;;;12.53;11.73;;;22.00;99.90;;;;;;5066729;28;20466;-66
2022/07/10 11:39:49;;;;;;;13.37;12.40;;;22.40;99.90;;;;;;5064480;28;20465;-66
2022/07/10 11:42:16;;;;;;;13.10;12.30;;;23.30;99.90;;;;;;5065437;28;20461;-68
2022/07/10 11:44:43;;;;;;;12.97;12.17;;;23.30;99.90;;;;;;5064642;28;20461;-66
2022/07/10 11:47:10;;;;;;;13.17;12.37;;;23.20;99.90;;;;;;5065049;28;20995;-67
2022/07/10 11:49:46;;;;;;;13.87;12.77;;;23.40;99.90;;;;;;5066009;28;20543;-65
2022/07/10 11:52:14;;;;;;;13.10;12.17;;;23.40;99.90;;;;;;5065900;28;20450;-65
2022/07/10 11:54:42;;;;;;;13.90;13.00;;;23.40;99.90;;;;;;5065697;28;21019;-66
2022/07/10 11:57:10;;;;;;;13.00;12.10;;;22.70;99.90;;;;;;5065672;28;20462;-65
2022/07/10 11:59:38;;;;;;;13.20;12.50;;;22.30;99.90;;;;;;5064917;28;20467;-67
2022/07/10 12:02:05;;;;;;;14.67;13.50;;;22.10;99.90;;;;;;5064986;28;21133;-65
2022/07/10 12:04:32;;;;;;;13.07;12.17;;;21.80;99.90;;;;;;5063894;28;20462;-67
2022/07/10 12:06:59;;;;;;;13.43;12.63;;;21.50;99.90;;;;;;5065765;28;20466;-66
2022/07/10 12:09:27;;;;;;;13.87;12.77;;;21.60;99.90;;;;;;5065379;28;20837;-66
2022/07/10 12:12:01;;;;;;;12.70;11.90;;;21.70;99.90;;;;;;5065780;28;20500;-67
2022/07/10 12:14:28;;;;;;;12.27;11.50;;;21.40;99.90;;;;;;5063468;28;20485;-66
2022/07/10 12:16:56;;;;;;;13.87;12.50;;;21.30;99.90;;;;;;5064654;28;20781;-67
2022/07/10 12:19:25;;;;;;;13.87;11.70;;;21.20;99.90;;;;;;5063275;28;20469;-66
2022/07/10 12:21:52;;;;;;;13.13;12.00;;;21.20;99.90;;;;;;5059657;28;20489;-67
2022/07/10 12:24:20;;;;;;;12.27;11.47;;;21.00;99.90;;;;;;5062742;28;20472;-66
2022/07/10 12:26:49;;;;;;;12.43;11.53;;;20.60;99.90;;;;;;5064442;28;20489;-66
2022/07/10 12:29:21;;;;;;;12.27;11.40;;;20.50;99.90;;;;;;5063903;28;20474;-67
2022/07/10 12:31:49;;;;;;;12.73;11.53;;;20.60;99.90;;;;;;5062240;28;20488;-67
2022/07/10 12:34:16;;;;;;;13.17;11.00;;;20.40;99.90;;;;;;5064260;28;21061;-67
2022/07/10 12:36:46;;;;;;;12.73;11.83;;;20.30;99.90;;;;;;5065089;28;20457;-67
2022/07/10 12:39:14;;;;;;;12.03;11.43;;;20.40;99.90;;;;;;5065836;28;20477;-66
2022/07/10 12:41:59;;;;;;;12.90;11.70;;;20.70;99.90;;;;;;5064953;28;20815;-67
2022/07/10 12:44:37;;;;;;;12.13;11.30;;;21.20;99.90;;;;;;5064478;28;20465;-67
2022/07/10 12:47:08;;;;;;;12.07;11.27;;;21.40;99.90;;;;;;5065304;28;20795;-67
2022/07/10 12:49:49;;;;;;;12.97;12.03;;;22.00;99.90;;;;;;5065029;28;20967;-68
2022/07/10 12:52:24;;;;;;;12.50;11.70;;;22.70;99.90;;;;;;5064762;28;20478;-67
2022/07/10 12:55:06;;;;;;;13.07;11.90;;;23.50;99.90;;;;;;5063932;28;20497;-67
2022/07/10 12:57:46;;;;;;;13.80;12.60;;;24.00;99.90;;;;;;5065072;28;20889;-67
2022/07/10 13:00:14;;;;;;;13.13;12.33;;;24.30;99.90;;;;;;5065324;28;20805;-67